sensor_id;sensor_type;location;lat;lon;timestamp;P1;durP1;ratioP1;P2;durP2;ratioP2
45909;SDS011;31622;55.416;37.840;2023-11-21T00:00:19;2.38;;;1.55;;
45909;SDS011;31622;55.416;37.840;2023-11-21T00:02:45;2.20;;;1.70;;
45909;SDS011;31622;55.416;37.840;2023-11-21T00:05:11;3.00;;;1.70;;
45909;SDS011;31622;55.416;37.840;2023-11-21T00:07:39;2.63;;;1.70;;
45909;SDS011;31622;55.416;37.840;2023-11-21T00:10:06;1.98;;;1.40;;
45909;SDS011;31622;55.416;37.840;2023-11-21T00:12:33;2.60;;;1.70;;
45909;SDS011;31622;55.416;37.840;2023-11-21T00:15:03;2.38;;;1.40;;
45909;SDS011;31622;55.416;37.840;2023-11-21T00:17:30;2.45;;;1.45;;
45909;SDS011;31622;55.416;37.840;2023-11-21T00:19:56;2.22;;;1.50;;
45909;SDS011;31622;55.416;37.840;2023-11-21T00:22:22;2.33;;;1.50;;
45909;SDS011;31622;55.416;37.840;2023-11-21T00:24:47;2.30;;;1.60;;
45909;SDS011;31622;55.416;37.840;2023-11-21T00:27:13;3.33;;;1.65;;
45909;SDS011;31622;55.416;37.840;2023-11-21T00:29:40;2.28;;;1.63;;
45909;SDS011;31622;55.416;37.840;2023-11-21T00:32:06;2.30;;;1.60;;
45909;SDS011;31622;55.416;37.840;2023-11-21T00:34:32;2.25;;;1.50;;
45909;SDS011;31622;55.416;37.840;2023-11-21T00:36:58;2.70;;;1.63;;
45909;SDS011;31622;55.416;37.840;2023-11-21T00:39:25;2.58;;;1.75;;
45909;SDS011;31622;55.416;37.840;2023-11-21T00:41:51;2.60;;;1.48;;
45909;SDS011;31622;55.416;37.840;2023-11-21T00:44:17;2.80;;;1.60;;
45909;SDS011;31622;55.416;37.840;2023-11-21T00:46:43;3.35;;;1.70;;
45909;SDS011;31622;55.416;37.840;2023-11-21T00:49:09;2.67;;;1.80;;
45909;SDS011;31622;55.416;37.840;2023-11-21T00:51:34;2.63;;;1.40;;
45909;SDS011;31622;55.416;37.840;2023-11-21T00:54:01;2.38;;;1.60;;
45909;SDS011;31622;55.416;37.840;2023-11-21T00:56:27;2.58;;;1.60;;
45909;SDS011;31622;55.416;37.840;2023-11-21T00:58:53;2.45;;;1.77;;
45909;SDS011;31622;55.416;37.840;2023-11-21T01:01:19;2.58;;;1.60;;
45909;SDS011;31622;55.416;37.840;2023-11-21T01:03:46;2.35;;;1.52;;
45909;SDS011;31622;55.416;37.840;2023-11-21T01:06:12;2.80;;;1.58;;
45909;SDS011;31622;55.416;37.840;2023-11-21T01:08:37;2.60;;;1.63;;
45909;SDS011;31622;55.416;37.840;2023-11-21T01:11:03;2.50;;;1.60;;
45909;SDS011;31622;55.416;37.840;2023-11-21T01:13:30;2.95;;;1.85;;
45909;SDS011;31622;55.416;37.840;2023-11-21T01:15:56;2.40;;;1.60;;
45909;SDS011;31622;55.416;37.840;2023-11-21T01:18:21;2.13;;;1.55;;
45909;SDS011;31622;55.416;37.840;2023-11-21T01:20:47;2.42;;;1.35;;
45909;SDS011;31622;55.416;37.840;2023-11-21T01:23:13;2.28;;;1.48;;
45909;SDS011;31622;55.416;37.840;2023-11-21T01:25:39;2.45;;;1.63;;
45909;SDS011;31622;55.416;37.840;2023-11-21T01:28:05;2.50;;;1.77;;
45909;SDS011;31622;55.416;37.840;2023-11-21T01:30:31;2.85;;;1.83;;
45909;SDS011;31622;55.416;37.840;2023-11-21T01:32:57;3.15;;;1.80;;
45909;SDS011;31622;55.416;37.840;2023-11-21T01:35:23;2.03;;;1.45;;
45909;SDS011;31622;55.416;37.840;2023-11-21T01:37:49;2.55;;;1.42;;
45909;SDS011;31622;55.416;37.840;2023-11-21T01:40:15;2.53;;;1.52;;
45909;SDS011;31622;55.416;37.840;2023-11-21T01:42:41;2.55;;;1.65;;
45909;SDS011;31622;55.416;37.840;2023-11-21T01:45:09;2.63;;;1.90;;
45909;SDS011;31622;55.416;37.840;2023-11-21T01:47:35;2.65;;;1.65;;
45909;SDS011;31622;55.416;37.840;2023-11-21T01:50:02;3.70;;;1.80;;
45909;SDS011;31622;55.416;37.840;2023-11-21T01:52:31;3.00;;;1.70;;
45909;SDS011;31622;55.416;37.840;2023-11-21T01:54:57;2.25;;;1.60;;
45909;SDS011;31622;55.416;37.840;2023-11-21T01:57:24;2.50;;;1.50;;
45909;SDS011;31622;55.416;37.840;2023-11-21T01:59:50;2.75;;;1.73;;
45909;SDS011;31622;55.416;37.840;2023-11-21T02:02:16;1.92;;;1.50;;
45909;SDS011;31622;55.416;37.840;2023-11-21T02:04:42;2.83;;;1.60;;
45909;SDS011;31622;55.416;37.840;2023-11-21T02:07:08;2.95;;;1.98;;
45909;SDS011;31622;55.416;37.840;2023-11-21T02:09:35;2.53;;;1.58;;
45909;SDS011;31622;55.416;37.840;2023-11-21T02:12:03;2.85;;;1.85;;
45909;SDS011;31622;55.416;37.840;2023-11-21T02:14:30;4.80;;;2.58;;
45909;SDS011;31622;55.416;37.840;2023-11-21T02:16:56;6.05;;;3.08;;
45909;SDS011;31622;55.416;37.840;2023-11-21T02:19:22;5.50;;;2.90;;
45909;SDS011;31622;55.416;37.840;2023-11-21T02:21:53;7.63;;;3.60;;
45909;SDS011;31622;55.416;37.840;2023-11-21T02:24:20;8.43;;;3.63;;
45909;SDS011;31622;55.416;37.840;2023-11-21T02:26:46;7.55;;;3.42;;
45909;SDS011;31622;55.416;37.840;2023-11-21T02:29:13;7.03;;;3.05;;
45909;SDS011;31622;55.416;37.840;2023-11-21T02:31:39;8.18;;;3.70;;
45909;SDS011;31622;55.416;37.840;2023-11-21T02:34:15;8.88;;;3.80;;
45909;SDS011;31622;55.416;37.840;2023-11-21T02:36:42;9.35;;;3.72;;
45909;SDS011;31622;55.416;37.840;2023-11-21T02:39:09;9.32;;;3.75;;
45909;SDS011;31622;55.416;37.840;2023-11-21T02:41:36;6.30;;;3.38;;
45909;SDS011;31622;55.416;37.840;2023-11-21T02:44:03;9.43;;;3.42;;
45909;SDS011;31622;55.416;37.840;2023-11-21T02:46:31;7.00;;;3.45;;
45909;SDS011;31622;55.416;37.840;2023-11-21T02:49:01;6.93;;;3.00;;
45909;SDS011;31622;55.416;37.840;2023-11-21T02:51:27;8.70;;;3.25;;
45909;SDS011;31622;55.416;37.840;2023-11-21T02:53:53;6.82;;;2.90;;
45909;SDS011;31622;55.416;37.840;2023-11-21T02:56:19;5.85;;;3.00;;
45909;SDS011;31622;55.416;37.840;2023-11-21T02:58:45;6.18;;;3.38;;
45909;SDS011;31622;55.416;37.840;2023-11-21T03:01:11;7.05;;;2.80;;
45909;SDS011;31622;55.416;37.840;2023-11-21T03:03:38;6.03;;;2.53;;
45909;SDS011;31622;55.416;37.840;2023-11-21T03:06:06;5.15;;;2.83;;
45909;SDS011;31622;55.416;37.840;2023-11-21T03:08:32;5.65;;;3.13;;
45909;SDS011;31622;55.416;37.840;2023-11-21T03:10:58;5.75;;;2.85;;
45909;SDS011;31622;55.416;37.840;2023-11-21T03:13:23;6.10;;;2.60;;
45909;SDS011;31622;55.416;37.840;2023-11-21T03:15:49;5.55;;;2.70;;
45909;SDS011;31622;55.416;37.840;2023-11-21T03:18:15;4.93;;;2.50;;
45909;SDS011;31622;55.416;37.840;2023-11-21T03:20:43;6.90;;;2.78;;
45909;SDS011;31622;55.416;37.840;2023-11-21T03:23:11;5.57;;;2.47;;
45909;SDS011;31622;55.416;37.840;2023-11-21T03:25:37;4.43;;;2.28;;
45909;SDS011;31622;55.416;37.840;2023-11-21T03:28:03;4.85;;;2.13;;
45909;SDS011;31622;55.416;37.840;2023-11-21T03:30:29;5.00;;;2.42;;
45909;SDS011;31622;55.416;37.840;2023-11-21T03:32:55;4.40;;;2.40;;
45909;SDS011;31622;55.416;37.840;2023-11-21T03:35:21;3.95;;;2.08;;
45909;SDS011;31622;55.416;37.840;2023-11-21T03:37:47;5.10;;;2.67;;
45909;SDS011;31622;55.416;37.840;2023-11-21T03:40:13;5.03;;;2.50;;
45909;SDS011;31622;55.416;37.840;2023-11-21T03:42:39;3.58;;;2.03;;
45909;SDS011;31622;55.416;37.840;2023-11-21T03:45:05;4.75;;;2.63;;
45909;SDS011;31622;55.416;37.840;2023-11-21T03:47:31;5.97;;;2.40;;
45909;SDS011;31622;55.416;37.840;2023-11-21T03:49:57;4.93;;;2.47;;
45909;SDS011;31622;55.416;37.840;2023-11-21T03:52:24;4.18;;;2.30;;
45909;SDS011;31622;55.416;37.840;2023-11-21T03:54:50;4.13;;;2.30;;
45909;SDS011;31622;55.416;37.840;2023-11-21T03:57:16;4.57;;;2.50;;
45909;SDS011;31622;55.416;37.840;2023-11-21T03:59:42;4.80;;;2.35;;
45909;SDS011;31622;55.416;37.840;2023-11-21T04:02:08;4.90;;;2.47;;
45909;SDS011;31622;55.416;37.840;2023-11-21T04:04:34;5.22;;;2.30;;
45909;SDS011;31622;55.416;37.840;2023-11-21T04:07:01;6.63;;;2.45;;
45909;SDS011;31622;55.416;37.840;2023-11-21T04:09:26;4.22;;;2.15;;
45909;SDS011;31622;55.416;37.840;2023-11-21T04:11:53;3.75;;;2.50;;
45909;SDS011;31622;55.416;37.840;2023-11-21T04:14:19;3.78;;;2.40;;
45909;SDS011;31622;55.416;37.840;2023-11-21T04:16:45;4.68;;;2.60;;
45909;SDS011;31622;55.416;37.840;2023-11-21T04:19:11;3.75;;;2.20;;
45909;SDS011;31622;55.416;37.840;2023-11-21T04:21:40;4.85;;;2.08;;
45909;SDS011;31622;55.416;37.840;2023-11-21T04:24:06;2.92;;;1.88;;
45909;SDS011;31622;55.416;37.840;2023-11-21T04:26:32;2.90;;;1.70;;
45909;SDS011;31622;55.416;37.840;2023-11-21T04:28:58;6.00;;;2.00;;
45909;SDS011;31622;55.416;37.840;2023-11-21T04:31:24;4.38;;;1.95;;
45909;SDS011;31622;55.416;37.840;2023-11-21T04:33:50;3.42;;;2.10;;
45909;SDS011;31622;55.416;37.840;2023-11-21T04:36:15;6.10;;;2.35;;
45909;SDS011;31622;55.416;37.840;2023-11-21T04:38:41;4.00;;;2.53;;
45909;SDS011;31622;55.416;37.840;2023-11-21T04:41:07;5.15;;;2.75;;
45909;SDS011;31622;55.416;37.840;2023-11-21T04:43:33;5.22;;;2.55;;
45909;SDS011;31622;55.416;37.840;2023-11-21T04:45:59;4.75;;;2.70;;
45909;SDS011;31622;55.416;37.840;2023-11-21T04:48:25;4.75;;;2.35;;
45909;SDS011;31622;55.416;37.840;2023-11-21T04:50:51;5.93;;;2.53;;
45909;SDS011;31622;55.416;37.840;2023-11-21T04:53:17;5.25;;;3.13;;
45909;SDS011;31622;55.416;37.840;2023-11-21T04:55:43;4.63;;;2.83;;
45909;SDS011;31622;55.416;37.840;2023-11-21T04:58:09;5.35;;;2.60;;
45909;SDS011;31622;55.416;37.840;2023-11-21T05:00:36;4.78;;;2.55;;
45909;SDS011;31622;55.416;37.840;2023-11-21T05:03:02;6.85;;;2.65;;
45909;SDS011;31622;55.416;37.840;2023-11-21T05:05:29;5.50;;;3.03;;
45909;SDS011;31622;55.416;37.840;2023-11-21T05:07:57;5.03;;;3.00;;
45909;SDS011;31622;55.416;37.840;2023-11-21T05:10:23;5.45;;;2.92;;
45909;SDS011;31622;55.416;37.840;2023-11-21T05:12:49;6.05;;;3.42;;
45909;SDS011;31622;55.416;37.840;2023-11-21T05:15:17;6.35;;;3.35;;
45909;SDS011;31622;55.416;37.840;2023-11-21T05:17:43;7.53;;;3.72;;
45909;SDS011;31622;55.416;37.840;2023-11-21T05:20:11;6.50;;;3.72;;
45909;SDS011;31622;55.416;37.840;2023-11-21T05:22:38;7.53;;;3.42;;
45909;SDS011;31622;55.416;37.840;2023-11-21T05:25:05;6.57;;;4.05;;
45909;SDS011;31622;55.416;37.840;2023-11-21T05:27:32;8.68;;;3.63;;
45909;SDS011;31622;55.416;37.840;2023-11-21T05:29:58;7.63;;;3.90;;
45909;SDS011;31622;55.416;37.840;2023-11-21T05:32:24;6.43;;;3.78;;
45909;SDS011;31622;55.416;37.840;2023-11-21T05:34:51;7.43;;;4.07;;
45909;SDS011;31622;55.416;37.840;2023-11-21T05:37:17;6.32;;;3.42;;
45909;SDS011;31622;55.416;37.840;2023-11-21T05:39:43;7.78;;;3.90;;
45909;SDS011;31622;55.416;37.840;2023-11-21T05:42:09;7.80;;;3.78;;
45909;SDS011;31622;55.416;37.840;2023-11-21T05:44:36;6.88;;;3.60;;
45909;SDS011;31622;55.416;37.840;2023-11-21T05:47:02;7.68;;;3.78;;
45909;SDS011;31622;55.416;37.840;2023-11-21T05:49:28;5.80;;;3.28;;
45909;SDS011;31622;55.416;37.840;2023-11-21T05:51:55;7.43;;;3.60;;
45909;SDS011;31622;55.416;37.840;2023-11-21T05:54:21;9.45;;;3.50;;
45909;SDS011;31622;55.416;37.840;2023-11-21T05:56:48;6.50;;;3.55;;
45909;SDS011;31622;55.416;37.840;2023-11-21T05:59:14;7.30;;;3.17;;
45909;SDS011;31622;55.416;37.840;2023-11-21T06:01:40;8.63;;;3.70;;
45909;SDS011;31622;55.416;37.840;2023-11-21T06:04:06;10.85;;;3.53;;
45909;SDS011;31622;55.416;37.840;2023-11-21T06:06:35;7.07;;;3.33;;
45909;SDS011;31622;55.416;37.840;2023-11-21T06:09:01;6.15;;;2.70;;
45909;SDS011;31622;55.416;37.840;2023-11-21T06:11:27;5.13;;;2.83;;
45909;SDS011;31622;55.416;37.840;2023-11-21T06:13:53;5.18;;;3.13;;
45909;SDS011;31622;55.416;37.840;2023-11-21T06:16:19;4.25;;;2.92;;
45909;SDS011;31622;55.416;37.840;2023-11-21T06:18:45;4.63;;;2.72;;
45909;SDS011;31622;55.416;37.840;2023-11-21T06:21:11;4.78;;;2.80;;
45909;SDS011;31622;55.416;37.840;2023-11-21T06:23:37;3.95;;;2.50;;
45909;SDS011;31622;55.416;37.840;2023-11-21T06:26:03;6.25;;;3.10;;
45909;SDS011;31622;55.416;37.840;2023-11-21T06:28:30;5.60;;;3.03;;
45909;SDS011;31622;55.416;37.840;2023-11-21T06:30:56;8.05;;;3.08;;
45909;SDS011;31622;55.416;37.840;2023-11-21T06:33:23;8.32;;;3.15;;
45909;SDS011;31622;55.416;37.840;2023-11-21T06:35:51;5.47;;;3.03;;
45909;SDS011;31622;55.416;37.840;2023-11-21T06:38:17;6.20;;;2.63;;
45909;SDS011;31622;55.416;37.840;2023-11-21T06:40:43;6.93;;;2.70;;
45909;SDS011;31622;55.416;37.840;2023-11-21T06:43:10;5.38;;;3.03;;
45909;SDS011;31622;55.416;37.840;2023-11-21T06:45:36;7.60;;;3.33;;
45909;SDS011;31622;55.416;37.840;2023-11-21T06:48:02;5.85;;;3.35;;
45909;SDS011;31622;55.416;37.840;2023-11-21T06:50:28;9.98;;;3.17;;
45909;SDS011;31622;55.416;37.840;2023-11-21T06:52:53;8.13;;;3.47;;
45909;SDS011;31622;55.416;37.840;2023-11-21T06:55:19;7.95;;;3.20;;
45909;SDS011;31622;55.416;37.840;2023-11-21T06:57:45;7.35;;;3.13;;
45909;SDS011;31622;55.416;37.840;2023-11-21T07:00:12;6.28;;;2.90;;
45909;SDS011;31622;55.416;37.840;2023-11-21T07:02:40;6.53;;;2.90;;
45909;SDS011;31622;55.416;37.840;2023-11-21T07:05:05;5.53;;;2.75;;
45909;SDS011;31622;55.416;37.840;2023-11-21T07:07:32;5.00;;;2.88;;
45909;SDS011;31622;55.416;37.840;2023-11-21T07:10:00;6.43;;;2.65;;
45909;SDS011;31622;55.416;37.840;2023-11-21T07:12:29;8.95;;;2.85;;
45909;SDS011;31622;55.416;37.840;2023-11-21T07:14:56;4.55;;;2.40;;
45909;SDS011;31622;55.416;37.840;2023-11-21T07:17:23;5.72;;;2.60;;
45909;SDS011;31622;55.416;37.840;2023-11-21T07:19:49;7.15;;;2.67;;
45909;SDS011;31622;55.416;37.840;2023-11-21T07:22:15;4.38;;;2.47;;
45909;SDS011;31622;55.416;37.840;2023-11-21T07:24:49;3.75;;;2.03;;
45909;SDS011;31622;55.416;37.840;2023-11-21T07:27:16;4.53;;;2.15;;
45909;SDS011;31622;55.416;37.840;2023-11-21T07:29:42;3.92;;;2.13;;
45909;SDS011;31622;55.416;37.840;2023-11-21T07:32:08;4.25;;;2.30;;
45909;SDS011;31622;55.416;37.840;2023-11-21T07:34:35;5.63;;;2.38;;
45909;SDS011;31622;55.416;37.840;2023-11-21T07:37:01;7.45;;;2.78;;
45909;SDS011;31622;55.416;37.840;2023-11-21T07:39:27;11.50;;;4.18;;
45909;SDS011;31622;55.416;37.840;2023-11-21T07:41:53;20.60;;;7.20;;
45909;SDS011;31622;55.416;37.840;2023-11-21T07:44:20;24.63;;;8.50;;
45909;SDS011;31622;55.416;37.840;2023-11-21T07:46:47;25.73;;;10.15;;
45909;SDS011;31622;55.416;37.840;2023-11-21T07:49:15;30.10;;;10.30;;
45909;SDS011;31622;55.416;37.840;2023-11-21T07:51:42;37.20;;;11.27;;
45909;SDS011;31622;55.416;37.840;2023-11-21T07:54:09;34.78;;;11.55;;
45909;SDS011;31622;55.416;37.840;2023-11-21T07:56:35;38.05;;;11.82;;
45909;SDS011;31622;55.416;37.840;2023-11-21T07:59:01;31.42;;;11.25;;
45909;SDS011;31622;55.416;37.840;2023-11-21T08:01:27;30.40;;;10.38;;
45909;SDS011;31622;55.416;37.840;2023-11-21T08:03:54;32.05;;;9.68;;
45909;SDS011;31622;55.416;37.840;2023-11-21T08:06:23;23.33;;;9.40;;
45909;SDS011;31622;55.416;37.840;2023-11-21T08:08:49;32.55;;;10.35;;
45909;SDS011;31622;55.416;37.840;2023-11-21T08:11:15;22.90;;;8.38;;
45909;SDS011;31622;55.416;37.840;2023-11-21T08:13:41;27.75;;;8.32;;
45909;SDS011;31622;55.416;37.840;2023-11-21T08:16:07;26.30;;;8.68;;
45909;SDS011;31622;55.416;37.840;2023-11-21T08:18:33;23.27;;;7.75;;
45909;SDS011;31622;55.416;37.840;2023-11-21T08:20:59;23.42;;;7.70;;
45909;SDS011;31622;55.416;37.840;2023-11-21T08:23:25;20.15;;;6.90;;
45909;SDS011;31622;55.416;37.840;2023-11-21T08:25:52;20.73;;;7.35;;
45909;SDS011;31622;55.416;37.840;2023-11-21T08:28:19;19.15;;;5.93;;
45909;SDS011;31622;55.416;37.840;2023-11-21T08:30:44;14.60;;;5.63;;
45909;SDS011;31622;55.416;37.840;2023-11-21T08:33:10;15.95;;;6.38;;
45909;SDS011;31622;55.416;37.840;2023-11-21T08:35:37;17.42;;;6.75;;
45909;SDS011;31622;55.416;37.840;2023-11-21T08:38:03;13.43;;;5.15;;
45909;SDS011;31622;55.416;37.840;2023-11-21T08:40:29;12.50;;;5.47;;
45909;SDS011;31622;55.416;37.840;2023-11-21T08:42:56;14.88;;;5.45;;
45909;SDS011;31622;55.416;37.840;2023-11-21T08:45:24;14.68;;;5.28;;
45909;SDS011;31622;55.416;37.840;2023-11-21T08:47:51;11.27;;;4.78;;
45909;SDS011;31622;55.416;37.840;2023-11-21T08:50:17;10.85;;;4.70;;
45909;SDS011;31622;55.416;37.840;2023-11-21T08:52:43;10.43;;;4.72;;
45909;SDS011;31622;55.416;37.840;2023-11-21T08:55:11;9.57;;;4.00;;
45909;SDS011;31622;55.416;37.840;2023-11-21T08:57:40;10.57;;;4.53;;
45909;SDS011;31622;55.416;37.840;2023-11-21T09:00:08;9.70;;;4.05;;
45909;SDS011;31622;55.416;37.840;2023-11-21T09:02:37;16.52;;;4.35;;
45909;SDS011;31622;55.416;37.840;2023-11-21T09:05:09;15.70;;;4.55;;
45909;SDS011;31622;55.416;37.840;2023-11-21T09:07:36;16.98;;;4.75;;
45909;SDS011;31622;55.416;37.840;2023-11-21T09:10:03;15.73;;;4.47;;
45909;SDS011;31622;55.416;37.840;2023-11-21T09:12:32;18.60;;;4.13;;
45909;SDS011;31622;55.416;37.840;2023-11-21T09:15:01;9.93;;;3.80;;
45909;SDS011;31622;55.416;37.840;2023-11-21T09:17:28;8.45;;;3.33;;
45909;SDS011;31622;55.416;37.840;2023-11-21T09:19:54;13.48;;;4.85;;
45909;SDS011;31622;55.416;37.840;2023-11-21T09:22:22;8.52;;;3.72;;
45909;SDS011;31622;55.416;37.840;2023-11-21T09:24:50;11.32;;;3.75;;
45909;SDS011;31622;55.416;37.840;2023-11-21T09:27:16;10.77;;;3.28;;
45909;SDS011;31622;55.416;37.840;2023-11-21T09:29:42;10.95;;;3.97;;
45909;SDS011;31622;55.416;37.840;2023-11-21T09:32:10;12.73;;;4.03;;
45909;SDS011;31622;55.416;37.840;2023-11-21T09:34:39;7.50;;;4.18;;
45909;SDS011;31622;55.416;37.840;2023-11-21T09:37:05;8.35;;;3.33;;
45909;SDS011;31622;55.416;37.840;2023-11-21T09:39:31;8.52;;;3.38;;
45909;SDS011;31622;55.416;37.840;2023-11-21T09:45:11;8.50;;;3.40;;
45909;SDS011;31622;55.416;37.840;2023-11-21T09:48:00;7.65;;;3.50;;
45909;SDS011;31622;55.416;37.840;2023-11-21T09:50:26;7.68;;;3.38;;
45909;SDS011;31622;55.416;37.840;2023-11-21T09:55:32;12.73;;;5.07;;
45909;SDS011;31622;55.416;37.840;2023-11-21T10:00:33;13.75;;;6.60;;
45909;SDS011;31622;55.416;37.840;2023-11-21T10:02:59;12.18;;;5.72;;
45909;SDS011;31622;55.416;37.840;2023-11-21T10:05:25;11.23;;;6.03;;
45909;SDS011;31622;55.416;37.840;2023-11-21T10:07:51;7.88;;;5.43;;
45909;SDS011;31622;55.416;37.840;2023-11-21T10:10:19;10.90;;;4.90;;
45909;SDS011;31622;55.416;37.840;2023-11-21T10:12:50;8.43;;;4.85;;
45909;SDS011;31622;55.416;37.840;2023-11-21T10:15:19;7.28;;;4.43;;
45909;SDS011;31622;55.416;37.840;2023-11-21T10:17:47;8.63;;;4.95;;
45909;SDS011;31622;55.416;37.840;2023-11-21T10:20:15;6.63;;;4.22;;
45909;SDS011;31622;55.416;37.840;2023-11-21T10:22:41;6.78;;;4.63;;
45909;SDS011;31622;55.416;37.840;2023-11-21T10:25:08;5.95;;;3.92;;
45909;SDS011;31622;55.416;37.840;2023-11-21T10:27:35;7.00;;;4.07;;
45909;SDS011;31622;55.416;37.840;2023-11-21T10:30:02;5.65;;;3.70;;
45909;SDS011;31622;55.416;37.840;2023-11-21T10:32:31;6.22;;;4.00;;
45909;SDS011;31622;55.416;37.840;2023-11-21T10:34:58;5.80;;;3.75;;
45909;SDS011;31622;55.416;37.840;2023-11-21T10:37:32;6.60;;;3.70;;
45909;SDS011;31622;55.416;37.840;2023-11-21T10:39:58;4.65;;;3.10;;
45909;SDS011;31622;55.416;37.840;2023-11-21T10:42:24;5.50;;;3.42;;
45909;SDS011;31622;55.416;37.840;2023-11-21T10:44:51;4.95;;;3.05;;
45909;SDS011;31622;55.416;37.840;2023-11-21T10:47:17;4.75;;;3.30;;
45909;SDS011;31622;55.416;37.840;2023-11-21T10:49:44;5.20;;;3.15;;
45909;SDS011;31622;55.416;37.840;2023-11-21T10:52:13;5.53;;;3.13;;
45909;SDS011;31622;55.416;37.840;2023-11-21T10:54:43;5.68;;;3.17;;
45909;SDS011;31622;55.416;37.840;2023-11-21T10:57:09;7.10;;;3.00;;
45909;SDS011;31622;55.416;37.840;2023-11-21T10:59:35;4.72;;;2.63;;
45909;SDS011;31622;55.416;37.840;2023-11-21T11:04:50;3.63;;;2.40;;
45909;SDS011;31622;55.416;37.840;2023-11-21T11:07:18;5.03;;;2.70;;
45909;SDS011;31622;55.416;37.840;2023-11-21T11:09:46;3.33;;;2.42;;
45909;SDS011;31622;55.416;37.840;2023-11-21T11:12:12;3.35;;;2.20;;
45909;SDS011;31622;55.416;37.840;2023-11-21T11:14:42;3.47;;;2.60;;
45909;SDS011;31622;55.416;37.840;2023-11-21T11:17:10;3.10;;;2.40;;
45909;SDS011;31622;55.416;37.840;2023-11-21T11:19:36;4.07;;;2.35;;
45909;SDS011;31622;55.416;37.840;2023-11-21T11:22:48;4.93;;;2.75;;
45909;SDS011;31622;55.416;37.840;2023-11-21T11:24:59;4.55;;;3.42;;
45909;SDS011;31622;55.416;37.840;2023-11-21T11:27:34;6.63;;;4.10;;
45909;SDS011;31622;55.416;37.840;2023-11-21T11:36:33;6.97;;;5.25;;
45909;SDS011;31622;55.416;37.840;2023-11-21T11:39:27;7.22;;;5.55;;
45909;SDS011;31622;55.416;37.840;2023-11-21T11:41:55;8.07;;;6.03;;
45909;SDS011;31622;55.416;37.840;2023-11-21T11:52:47;7.38;;;5.20;;
45909;SDS011;31622;55.416;37.840;2023-11-21T11:55:15;7.60;;;5.75;;
45909;SDS011;31622;55.416;37.840;2023-11-21T11:57:48;6.05;;;5.03;;
45909;SDS011;31622;55.416;37.840;2023-11-21T12:02:53;5.95;;;4.75;;
45909;SDS011;31622;55.416;37.840;2023-11-21T12:05:22;7.78;;;4.85;;
45909;SDS011;31622;55.416;37.840;2023-11-21T12:07:49;6.15;;;4.78;;
45909;SDS011;31622;55.416;37.840;2023-11-21T12:12:54;6.72;;;4.90;;
45909;SDS011;31622;55.416;37.840;2023-11-21T12:15:24;6.03;;;4.68;;
45909;SDS011;31622;55.416;37.840;2023-11-21T12:18:00;5.93;;;4.40;;
45909;SDS011;31622;55.416;37.840;2023-11-21T12:20:26;8.10;;;4.72;;
45909;SDS011;31622;55.416;37.840;2023-11-21T12:22:54;6.47;;;4.53;;
45909;SDS011;31622;55.416;37.840;2023-11-21T12:25:25;6.90;;;4.45;;
45909;SDS011;31622;55.416;37.840;2023-11-21T12:27:57;7.53;;;4.10;;
45909;SDS011;31622;55.416;37.840;2023-11-21T12:30:24;5.53;;;4.32;;
45909;SDS011;31622;55.416;37.840;2023-11-21T12:32:53;6.65;;;5.05;;
45909;SDS011;31622;55.416;37.840;2023-11-21T12:35:27;6.10;;;4.50;;
45909;SDS011;31622;55.416;37.840;2023-11-21T12:37:59;10.05;;;4.70;;
45909;SDS011;31622;55.416;37.840;2023-11-21T12:40:27;7.20;;;4.70;;
45909;SDS011;31622;55.416;37.840;2023-11-21T12:42:55;6.68;;;4.40;;
45909;SDS011;31622;55.416;37.840;2023-11-21T12:45:23;7.72;;;4.65;;
45909;SDS011;31622;55.416;37.840;2023-11-21T12:48:00;5.97;;;4.90;;
45909;SDS011;31622;55.416;37.840;2023-11-21T12:50:33;8.25;;;4.32;;
45909;SDS011;31622;55.416;37.840;2023-11-21T12:53:04;7.60;;;4.40;;
45909;SDS011;31622;55.416;37.840;2023-11-21T12:55:31;5.68;;;3.90;;
45909;SDS011;31622;55.416;37.840;2023-11-21T12:57:58;5.78;;;4.32;;
45909;SDS011;31622;55.416;37.840;2023-11-21T13:00:44;6.70;;;4.43;;
45909;SDS011;31622;55.416;37.840;2023-11-21T13:03:11;5.65;;;4.20;;
45909;SDS011;31622;55.416;37.840;2023-11-21T13:05:42;4.53;;;3.22;;
45909;SDS011;31622;55.416;37.840;2023-11-21T13:08:10;5.03;;;3.50;;
45909;SDS011;31622;55.416;37.840;2023-11-21T13:10:44;5.00;;;3.47;;
45909;SDS011;31622;55.416;37.840;2023-11-21T13:13:12;6.45;;;3.70;;
45909;SDS011;31622;55.416;37.840;2023-11-21T13:15:51;5.10;;;3.50;;
45909;SDS011;31622;55.416;37.840;2023-11-21T13:18:21;7.13;;;3.60;;
45909;SDS011;31622;55.416;37.840;2023-11-21T13:20:52;5.70;;;3.85;;
45909;SDS011;31622;55.416;37.840;2023-11-21T13:23:18;5.32;;;3.40;;
45909;SDS011;31622;55.416;37.840;2023-11-21T13:25:44;7.72;;;3.25;;
45909;SDS011;31622;55.416;37.840;2023-11-21T13:28:14;5.00;;;3.08;;
45909;SDS011;31622;55.416;37.840;2023-11-21T13:30:46;4.20;;;2.63;;
45909;SDS011;31622;55.416;37.840;2023-11-21T13:33:13;4.72;;;3.00;;
45909;SDS011;31622;55.416;37.840;2023-11-21T13:35:43;4.28;;;3.00;;
45909;SDS011;31622;55.416;37.840;2023-11-21T13:38:13;7.60;;;3.20;;
45909;SDS011;31622;55.416;37.840;2023-11-21T13:40:46;4.70;;;3.20;;
45909;SDS011;31622;55.416;37.840;2023-11-21T13:43:15;8.30;;;3.60;;
45909;SDS011;31622;55.416;37.840;2023-11-21T13:45:42;4.55;;;2.90;;
45909;SDS011;31622;55.416;37.840;2023-11-21T13:48:09;6.18;;;3.50;;
45909;SDS011;31622;55.416;37.840;2023-11-21T13:50:36;5.30;;;3.50;;
45909;SDS011;31622;55.416;37.840;2023-11-21T13:53:02;6.80;;;3.25;;
45909;SDS011;31622;55.416;37.840;2023-11-21T13:55:46;5.80;;;3.20;;
45909;SDS011;31622;55.416;37.840;2023-11-21T13:58:13;9.60;;;3.75;;
45909;SDS011;31622;55.416;37.840;2023-11-21T14:00:45;6.00;;;3.00;;
45909;SDS011;31622;55.416;37.840;2023-11-21T14:03:14;5.32;;;3.53;;
45909;SDS011;31622;55.416;37.840;2023-11-21T14:05:47;6.40;;;2.97;;
45909;SDS011;31622;55.416;37.840;2023-11-21T14:08:18;7.80;;;2.80;;
45909;SDS011;31622;55.416;37.840;2023-11-21T14:10:49;6.85;;;2.92;;
45909;SDS011;31622;55.416;37.840;2023-11-21T14:13:23;6.40;;;2.90;;
45909;SDS011;31622;55.416;37.840;2023-11-21T14:15:50;4.85;;;3.03;;
45909;SDS011;31622;55.416;37.840;2023-11-21T14:18:19;6.53;;;2.95;;
45909;SDS011;31622;55.416;37.840;2023-11-21T14:20:52;9.93;;;2.92;;
45909;SDS011;31622;55.416;37.840;2023-11-21T14:23:18;11.20;;;2.55;;
45909;SDS011;31622;55.416;37.840;2023-11-21T14:25:47;6.35;;;2.70;;
45909;SDS011;31622;55.416;37.840;2023-11-21T14:28:13;7.78;;;2.30;;
45909;SDS011;31622;55.416;37.840;2023-11-21T14:30:40;5.05;;;2.30;;
45909;SDS011;31622;55.416;37.840;2023-11-21T14:33:07;3.63;;;2.33;;
45909;SDS011;31622;55.416;37.840;2023-11-21T14:35:37;4.55;;;2.22;;
45909;SDS011;31622;55.416;37.840;2023-11-21T14:38:09;9.23;;;2.42;;
45909;SDS011;31622;55.416;37.840;2023-11-21T14:40:35;5.25;;;2.30;;
45909;SDS011;31622;55.416;37.840;2023-11-21T14:43:04;4.60;;;2.30;;
45909;SDS011;31622;55.416;37.840;2023-11-21T14:45:33;4.53;;;2.50;;
45909;SDS011;31622;55.416;37.840;2023-11-21T14:48:00;3.20;;;1.80;;
45909;SDS011;31622;55.416;37.840;2023-11-21T14:50:41;3.47;;;2.33;;
45909;SDS011;31622;55.416;37.840;2023-11-21T14:53:07;4.38;;;2.00;;
45909;SDS011;31622;55.416;37.840;2023-11-21T14:55:38;3.55;;;2.33;;
45909;SDS011;31622;55.416;37.840;2023-11-21T14:58:04;3.17;;;1.92;;
45909;SDS011;31622;55.416;37.840;2023-11-21T15:00:30;4.40;;;1.85;;
45909;SDS011;31622;55.416;37.840;2023-11-21T15:03:00;3.40;;;1.98;;
45909;SDS011;31622;55.416;37.840;2023-11-21T15:05:26;3.22;;;1.80;;